CheckWX is a tool to help pilots better visualize weather data.  It is not intended as a substitute for an official pre-flight weather briefing.

14:46:41 UTC

SKRG TAF
Jose Maria Córdova International Airport
Rionegro, Colombia
TAF SKRG 231100Z 2312/2412 VRB02KT 9999 SCT015 SCT070 TEMPO 2312/2314 6000 VCFG DZ BKN005 BECMG 2314/2316 12014KT TEMPO 2319/2322 7000 VCSH SCT015TCU BECMG 2402/2404 00000KT TEMPO 2405/2409 7000 VCSH BKN015 TX23/2319Z TN13/2411Z

Mar-23@
12:00 UTC

Mar-23 @ 12:00 UTC

Mar-23@
14:00 UTC

Mar-23 @ 14:00 UTC

TAF SKRG 231100Z 2312/2412 VRB02KT 9999 SCT015 SCT070

Expired

Wind
  • Variable at 2 KTS
Cloud Levels
  • Scattered at 1,500' AGL
  • Scattered at 7,000' AGL

Mar-23@
12:00 UTC

Mar-23 @ 12:00 UTC

Mar-23@
14:00 UTC

Mar-23 @ 14:00 UTC

TEMPO 2312/2314 6000 VCFG DZ BKN005

Expired

Conditions
Area Fog, Drizzle
Cloud Levels
  • Broken at 500' AGL

Mar-23@
14:00 UTC

Mar-23 @ 14:00 UTC

Mar-24@
02:00 UTC

Mar-24 @ 02:00 UTC

BECMG 2314/2316 12014KT

Becoming

Becoming Conditions expected by Sat, Mar 23, 2019 @ 16:00 UTC

Wind
  • 120° at 14 KTS
Cloud Levels
  • Scattered at 1,500' AGL
  • Scattered at 7,000' AGL

Mar-23@
19:00 UTC

Mar-23 @ 19:00 UTC

Mar-23@
22:00 UTC

Mar-23 @ 22:00 UTC

TEMPO 2319/2322 7000 VCSH SCT015TCU

Temporary

Temporary Changes expected for less than half the time period

Cloud Levels
  • Scattered at 1,500' AGL

Mar-24@
02:00 UTC

Mar-24 @ 02:00 UTC

Mar-24@
12:00 UTC

Mar-24 @ 12:00 UTC

BECMG 2402/2404 00000KT

Becoming

Becoming Conditions expected by Sun, Mar 24, 2019 @ 04:00 UTC

Cloud Levels
  • Scattered at 1,500' AGL
  • Scattered at 7,000' AGL

Mar-24@
05:00 UTC

Mar-24 @ 05:00 UTC

Mar-24@
09:00 UTC

Mar-24 @ 09:00 UTC

TEMPO 2405/2409 7000 VCSH BKN015 TX23/2319Z TN13/2411Z

Temporary

Temporary Changes expected for less than half the time period

Cloud Levels
  • Broken at 1,500' AGL